Disclaimer

    

CYCD

METAR CYCD 220000Z 35003KT 1SM -RA BR BKN005 OVC008 08/07 A3000 RMK SF5SC3 CIG RAG SLP162=

METAR CYCD 212300Z 01005KT 1SM -RA BR BKN004 OVC007 07/07 A2999 RMK SF6SF2 CIG RAG SLP158=

METAR CYCD 212200Z 36005KT 1SM -RA BR BKN004 OVC007 08/07 A2997 RMK SF6SC2 SLP152=

TAF CYCD 212356Z 2200/2205 01005KT 1 1/2SM -RA BR OVC004 TEMPO2200/2205 6SM -RA SCT004 OVC010RMK NXT FCST BY 221600Z=

CYVR

METAR CYVR 220000Z 03005KT 010V100 25SM BKN020 OVC031 10/08 A2999 RMK SC6SC2 SLP159=

SPECI CYVR 212340Z 05003KT 360V100 25SM -RA BKN022 OVC031 10/09 A2999 RMK SC5SC3 SLP157=

METAR CYVR 212300Z 06004KT 15SM BKN031 OVC038 10/08 A2998 RMK SC5SC3 SH DIST NW-N SLP154=

METAR CYVR 212200Z 11006KT 050V120 20SM BKN019 OVC034 11/08 A2997 RMK SC5SC3 RA DIST N-NE SLP150=

TAF CYVR 212340Z 2200/2306 06007KT P6SM SCT015 BKN030 TEMPO2200/2204 4SM -SHRA BR SCT006 BKN015FM220400 08007KT P6SM SCT005 OVC020 TEMPO 2204/2209 2SM -SHRA BRBKN005 OVC015FM220900 09007KT 2SM -RA BR BKN005 OVC015 TEMPO 2209/2221 5SM-RA BR SCT005 OVC015FM222100 12007KT P6SM SCT015 BKN030 TEMPO 2221/2302 5SM -RA BRBKN015 OVC030RMK NXT FCST BY 220300Z

CYHC

LWIS CYHC 220000Z AUTO 12006KT 10/07 A3000=

LWIS CYHC 212300Z AUTO 08003KT 09/07 A2999=

LWIS CYHC 212200Z AUTO 10007KT 09/07 A2997=

CZBB

LWIS CZBB 220000Z AUTO 09006KT 10/10 A3000=

LWIS CZBB 212300Z AUTO 08005KT 10/09 A2998=

LWIS CZBB 212200Z AUTO 07005KT 10/10 A2997=

CYPK

LWIS CYPK 220000Z AUTO 00000KT 10/07 A3000=

LWIS CYPK 212300Z AUTO 03008KT 11/08 A2998=

LWIS CYPK 212200Z AUTO 04008KT 10/07 A2997=

CYNJ

LWIS CYNJ 220000Z AUTO 20004KT 10/09 A3000=

LWIS CYNJ 212300Z AUTO 06003KT 11/09 A2998=

LWIS CYNJ 212200Z AUTO VRB02KT 11/09 A2997=

CYXX

SPECI CYXX 220015Z 08003KT 030V120 10SM -SHRA FEW010 SCT015 BKN032 OVC057 10/08 A3000 RMK SF1SC2SC4SC1 VIS LWR S-SW CVCTV CLD EMBD SLP161=

METAR CYXX 220000Z 06003KT 10SM FEW010 FEW016 BKN031 OVC052 10/08 A2999 RMK SF1SC1SC4SC3 SF TR SLP159=

METAR CYXX 212300Z 03004KT 010V070 10SM FEW004 FEW010 BKN039 OVC052 10/08 A2998 RMK SF1SF1SC5SC2 SF TR SLP155=

METAR CYXX 212200Z 04007KT 7SM FEW005 FEW024 BKN037 BKN047 OVC060 10/08 A2996 RMK SF1SC2SC3SC3SC1 SF TR VIS LWR N SLP149=

TAF CYXX 212340Z 2200/2224 03007KT P6SM SCT020 BKN040 TEMPO2200/2204 4SM -SHRA BR SCT012 OVC020FM220400 05005KT P6SM -SHRA SCT012 BKN030 TEMPO 2204/2222 2SM-SHRA BR SCT006 BKN015FM222200 03005KT P6SM SCT012 BKN030RMK NXT FCST BY 220600Z=

Supplemental information

Lower mainland ATIS: 1-877-517-2847

CZBB (Boundary Bay) current winds

Upper winds (Vancouver)

Data fromValid at300060009000
21120021180011111510-021310-08
21120022000014121316-021310-07
21120022120021082211-029900-08

NOTAMs

On October 10, 2019, NAV CANADA changed to the ICAO NOTAM format. They are now available only through Collaborative Flight Planning Services (CFPS) (plan.navcanada.ca). I'm working to update this site to pull in the relevant NOTAMs in the new format.